Time;durP1;ratioP1;P1;durP2;ratioP2;P2;SDS_P1;SDS_P2;PMS_P1;PMS_P2;Temp;Humidity;BMP_temperature;BMP_pressure;BME280_temperature;BME280_humidity;BME280_pressure;Samples;Min_cycle;Max_cycle;Signal;HPM_P1;HPM_P2
2022/07/29 00:00:52;;;;;;;2.15;2;;;;;;;20.26;63.64551;95257.42;;;;
2022/07/29 00:01:53;;;;;;;2.15;2;;;;;;;20.26;63.64551;95257.42;;;;
2022/07/29 00:02:53;;;;;;;2.15;2;;;;;;;20.26;63.64551;95257.42;;;;
2022/07/29 00:03:54;;;;;;;2.55;2.35;;;;;;;20.17;64.15234;95257.69;;;;
2022/07/29 00:04:54;;;;;;;2.55;2.35;;;;;;;20.17;64.15234;95257.69;;;;
2022/07/29 00:05:55;;;;;;;2.55;2.35;;;;;;;20.17;64.15234;95257.69;;;;
2022/07/29 00:06:55;;;;;;;2.55;2.35;;;;;;;20.17;64.15234;95257.69;;;;
2022/07/29 00:07:56;;;;;;;2.55;2.35;;;;;;;20.17;64.15234;95257.69;;;;
2022/07/29 00:08:56;;;;;;;2.55;2.35;;;;;;;20.17;64.15234;95257.69;;;;
2022/07/29 00:09:57;;;;;;;2.55;2.35;;;;;;;20.17;64.15234;95257.69;;;;
2022/07/29 00:10:57;;;;;;;2.55;2.35;;;;;;;20.17;64.15234;95257.69;;;;
2022/07/29 00:11:58;;;;;;;2.55;2.35;;;;;;;20.17;64.15234;95257.69;;;;
2022/07/29 00:13:00;;;;;;;2.55;2.35;;;;;;;20.17;64.15234;95257.69;;;;
2022/07/29 00:14:01;;;;;;;3.05;2.6;;;;;;;20.04;64.77246;95246.95;;;;
2022/07/29 00:15:02;;;;;;;3.05;2.6;;;;;;;20.04;64.77246;95246.95;;;;
2022/07/29 00:16:04;;;;;;;3.05;2.6;;;;;;;20.04;64.77246;95246.95;;;;
2022/07/29 00:17:04;;;;;;;3.05;2.6;;;;;;;20.04;64.77246;95246.95;;;;
2022/07/29 00:18:05;;;;;;;3.05;2.6;;;;;;;20.04;64.77246;95246.95;;;;
2022/07/29 00:19:06;;;;;;;3.05;2.6;;;;;;;20.04;64.77246;95246.95;;;;
2022/07/29 00:20:06;;;;;;;3.05;2.6;;;;;;;20.04;64.77246;95246.95;;;;
2022/07/29 00:21:08;;;;;;;3.05;2.6;;;;;;;20.04;64.77246;95246.95;;;;
2022/07/29 00:22:09;;;;;;;3.05;2.6;;;;;;;20.04;64.77246;95246.95;;;;
2022/07/29 00:23:09;;;;;;;3.05;2.6;;;;;;;20.04;64.77246;95246.95;;;;
2022/07/29 00:24:10;;;;;;;3.05;2.6;;;;;;;20.04;64.77246;95246.95;;;;
2022/07/29 00:25:10;;;;;;;2.7;2.5;;;;;;;20;65.39551;95243.22;;;;
2022/07/29 00:26:12;;;;;;;2.7;2.5;;;;;;;20;65.39551;95243.22;;;;
2022/07/29 00:27:13;;;;;;;2.7;2.5;;;;;;;20;65.39551;95243.22;;;;
2022/07/29 00:28:13;;;;;;;2.7;2.5;;;;;;;20;65.39551;95243.22;;;;
2022/07/29 00:29:14;;;;;;;2.7;2.5;;;;;;;20;65.39551;95243.22;;;;
2022/07/29 00:30:14;;;;;;;2.7;2.5;;;;;;;20;65.39551;95243.22;;;;
2022/07/29 00:31:15;;;;;;;2.7;2.5;;;;;;;20;65.39551;95243.22;;;;
2022/07/29 00:32:15;;;;;;;2.7;2.5;;;;;;;20;65.39551;95243.22;;;;
2022/07/29 00:33:16;;;;;;;2.7;2.5;;;;;;;20;65.39551;95243.22;;;;
2022/07/29 00:39:28;;;;;;;2.65;2.45;;;;;;;19.94;65.67285;95238.5;;;;
2022/07/29 00:40:29;;;;;;;2.65;2.45;;;;;;;19.94;65.67285;95238.5;;;;
2022/07/29 00:41:29;;;;;;;2.65;2.45;;;;;;;19.94;65.67285;95238.5;;;;
2022/07/29 00:42:30;;;;;;;2.65;2.45;;;;;;;19.94;65.67285;95238.5;;;;
2022/07/29 00:43:30;;;;;;;2.65;2.45;;;;;;;19.94;65.67285;95238.5;;;;
2022/07/29 00:44:31;;;;;;;2.65;2.45;;;;;;;19.94;65.67285;95238.5;;;;
2022/07/29 00:45:36;;;;;;;2.65;2.45;;;;;;;19.94;65.67285;95238.5;;;;
2022/07/29 00:46:37;;;;;;;2.8;2.4;;;;;;;19.98;65.83203;95221.73;;;;
2022/07/29 00:47:37;;;;;;;2.8;2.4;;;;;;;19.98;65.83203;95221.73;;;;
2022/07/29 00:48:38;;;;;;;2.8;2.4;;;;;;;19.98;65.83203;95221.73;;;;
2022/07/29 00:49:38;;;;;;;2.8;2.4;;;;;;;19.98;65.83203;95221.73;;;;
2022/07/29 00:50:40;;;;;;;2.8;2.4;;;;;;;19.98;65.83203;95221.73;;;;
2022/07/29 00:51:41;;;;;;;2.8;2.4;;;;;;;19.98;65.83203;95221.73;;;;
2022/07/29 00:52:41;;;;;;;2.8;2.4;;;;;;;19.98;65.83203;95221.73;;;;
2022/07/29 00:53:42;;;;;;;2.8;2.4;;;;;;;19.98;65.83203;95221.73;;;;
2022/07/29 00:54:43;;;;;;;2.8;2.4;;;;;;;19.98;65.83203;95221.73;;;;
2022/07/29 00:55:44;;;;;;;2.8;2.4;;;;;;;19.98;65.83203;95221.73;;;;
2022/07/29 00:56:44;;;;;;;2.8;2.4;;;;;;;19.98;65.83203;95221.73;;;;
2022/07/29 00:57:45;;;;;;;2.4;2;;;;;;;19.94;65.95898;95199.22;;;;
2022/07/29 00:58:45;;;;;;;2.4;2;;;;;;;19.94;65.95898;95199.22;;;;
2022/07/29 00:59:47;;;;;;;2.4;2;;;;;;;19.94;65.95898;95199.22;;;;
2022/07/29 01:00:48;;;;;;;2.4;2;;;;;;;19.94;65.95898;95199.22;;;;
2022/07/29 01:01:50;;;;;;;2.4;2;;;;;;;19.94;65.95898;95199.22;;;;
2022/07/29 01:02:50;;;;;;;2.4;2;;;;;;;19.94;65.95898;95199.22;;;;
2022/07/29 01:03:51;;;;;;;2.4;2;;;;;;;19.94;65.95898;95199.22;;;;
2022/07/29 01:04:52;;;;;;;2.4;2;;;;;;;19.94;65.95898;95199.22;;;;
2022/07/29 01:05:53;;;;;;;2.4;2;;;;;;;19.94;65.95898;95199.22;;;;
2022/07/29 01:06:54;;;;;;;2.4;2;;;;;;;19.94;65.95898;95199.22;;;;
2022/07/29 01:07:55;;;;;;;2.1;1.8;;;;;;;19.99;65.66992;95190.59;;;;
2022/07/29 01:08:57;;;;;;;2.1;1.8;;;;;;;19.99;65.66992;95190.59;;;;
2022/07/29 01:09:59;;;;;;;2.1;1.8;;;;;;;19.99;65.66992;95190.59;;;;
2022/07/29 01:11:01;;;;;;;2.1;1.8;;;;;;;19.99;65.66992;95190.59;;;;
2022/07/29 01:12:02;;;;;;;2.1;1.8;;;;;;;19.99;65.66992;95190.59;;;;
2022/07/29 01:13:05;;;;;;;2.1;1.8;;;;;;;19.99;65.66992;95190.59;;;;
2022/07/29 01:14:06;;;;;;;2.1;1.8;;;;;;;19.99;65.66992;95190.59;;;;
2022/07/29 01:15:08;;;;;;;2.1;1.8;;;;;;;19.99;65.66992;95190.59;;;;
2022/07/29 01:16:09;;;;;;;2.1;1.8;;;;;;;19.99;65.66992;95190.59;;;;
2022/07/29 01:17:15;;;;;;;2.1;1.8;;;;;;;19.99;65.66992;95190.59;;;;
2022/07/29 01:18:21;;;;;;;2.1;1.9;;;;;;;19.99;65.42773;95195.03;;;;
2022/07/29 01:19:28;;;;;;;2.1;1.9;;;;;;;19.99;65.42773;95195.03;;;;
2022/07/29 01:20:47;;;;;;;2.1;1.9;;;;;;;19.99;65.42773;95195.03;;;;
2022/07/29 01:22:07;;;;;;;2.1;1.9;;;;;;;19.99;65.42773;95195.03;;;;
2022/07/29 01:23:26;;;;;;;2.1;1.9;;;;;;;19.99;65.42773;95195.03;;;;
2022/07/29 01:24:47;;;;;;;2.1;1.9;;;;;;;19.99;65.42773;95195.03;;;;
2022/07/29 01:26:05;;;;;;;2.1;1.9;;;;;;;19.99;65.42773;95195.03;;;;
2022/07/29 01:27:28;;;;;;;2.1;1.9;;;;;;;19.99;65.42773;95195.03;;;;
2022/07/29 01:28:41;;;;;;;2.1;1.9;;;;;;;19.99;65.42773;95195.03;;;;
2022/07/29 01:29:51;;;;;;;1.9;1.7;;;;;;;20.04;65.35742;95190.74;;;;
2022/07/29 01:30:56;;;;;;;1.9;1.7;;;;;;;20.04;65.35742;95190.74;;;;
2022/07/29 01:31:58;;;;;;;1.9;1.7;;;;;;;20.04;65.35742;95190.74;;;;
2022/07/29 01:33:04;;;;;;;1.9;1.7;;;;;;;20.04;65.35742;95190.74;;;;
2022/07/29 01:34:10;;;;;;;1.9;1.7;;;;;;;20.04;65.35742;95190.74;;;;
2022/07/29 01:35:17;;;;;;;1.9;1.7;;;;;;;20.04;65.35742;95190.74;;;;
2022/07/29 01:36:23;;;;;;;1.9;1.7;;;;;;;20.04;65.35742;95190.74;;;;
2022/07/29 01:37:30;;;;;;;1.9;1.7;;;;;;;20.04;65.35742;95190.74;;;;
2022/07/29 01:38:39;;;;;;;1.9;1.7;;;;;;;20.04;65.35742;95190.74;;;;
2022/07/29 01:39:42;;;;;;;2;1.8;;;;;;;19.95;65.42188;95175.73;;;;
2022/07/29 01:40:46;;;;;;;2;1.8;;;;;;;19.95;65.42188;95175.73;;;;
2022/07/29 01:41:51;;;;;;;2;1.8;;;;;;;19.95;65.42188;95175.73;;;;
2022/07/29 01:43:05;;;;;;;2;1.8;;;;;;;19.95;65.42188;95175.73;;;;
2022/07/29 01:44:12;;;;;;;2;1.8;;;;;;;19.95;65.42188;95175.73;;;;
2022/07/29 01:45:18;;;;;;;2;1.8;;;;;;;19.95;65.42188;95175.73;;;;
2022/07/29 01:46:23;;;;;;;2;1.8;;;;;;;19.95;65.42188;95175.73;;;;
2022/07/29 01:47:29;;;;;;;2;1.8;;;;;;;19.95;65.42188;95175.73;;;;
2022/07/29 01:48:37;;;;;;;2;1.8;;;;;;;19.95;65.42188;95175.73;;;;
2022/07/29 01:49:42;;;;;;;2;1.8;;;;;;;19.95;65.42188;95175.73;;;;
2022/07/29 01:50:47;;;;;;;2.25;2.05;;;;;;;19.93;65.60547;95180.55;;;;
2022/07/29 01:51:51;;;;;;;2.25;2.05;;;;;;;19.93;65.60547;95180.55;;;;
2022/07/29 01:52:57;;;;;;;2.25;2.05;;;;;;;19.93;65.60547;95180.55;;;;
2022/07/29 01:54:00;;;;;;;2.25;2.05;;;;;;;19.93;65.60547;95180.55;;;;
2022/07/29 01:55:06;;;;;;;2.25;2.05;;;;;;;19.93;65.60547;95180.55;;;;
2022/07/29 01:56:12;;;;;;;2.25;2.05;;;;;;;19.93;65.60547;95180.55;;;;
2022/07/29 01:57:14;;;;;;;2.25;2.05;;;;;;;19.93;65.60547;95180.55;;;;
2022/07/29 01:58:18;;;;;;;2.25;2.05;;;;;;;19.93;65.60547;95180.55;;;;
2022/07/29 01:59:20;;;;;;;2.25;2.05;;;;;;;19.93;65.60547;95180.55;;;;
2022/07/29 02:00:21;;;;;;;2.25;2.05;;;;;;;19.93;65.60547;95180.55;;;;
2022/07/29 02:01:23;;;;;;;2.3;1.95;;;;;;;19.81;65.89746;95175.63;;;;
2022/07/29 02:02:24;;;;;;;2.3;1.95;;;;;;;19.81;65.89746;95175.63;;;;
2022/07/29 02:03:27;;;;;;;2.3;1.95;;;;;;;19.81;65.89746;95175.63;;;;
2022/07/29 02:04:31;;;;;;;2.3;1.95;;;;;;;19.81;65.89746;95175.63;;;;
2022/07/29 02:05:33;;;;;;;2.3;1.95;;;;;;;19.81;65.89746;95175.63;;;;
2022/07/29 02:06:35;;;;;;;2.3;1.95;;;;;;;19.81;65.89746;95175.63;;;;
2022/07/29 02:07:40;;;;;;;2.3;1.95;;;;;;;19.81;65.89746;95175.63;;;;
2022/07/29 02:08:42;;;;;;;2.3;1.95;;;;;;;19.81;65.89746;95175.63;;;;
2022/07/29 02:09:44;;;;;;;2.3;1.95;;;;;;;19.81;65.89746;95175.63;;;;
2022/07/29 02:10:47;;;;;;;2.3;1.95;;;;;;;19.81;65.89746;95175.63;;;;
2022/07/29 02:11:48;;;;;;;2.55;2.1;;;;;;;19.75;66.19629;95162.34;;;;
2022/07/29 02:12:53;;;;;;;2.55;2.1;;;;;;;19.75;66.19629;95162.34;;;;
2022/07/29 02:13:56;;;;;;;2.55;2.1;;;;;;;19.75;66.19629;95162.34;;;;
2022/07/29 02:14:57;;;;;;;2.55;2.1;;;;;;;19.75;66.19629;95162.34;;;;
2022/07/29 02:16:01;;;;;;;2.55;2.1;;;;;;;19.75;66.19629;95162.34;;;;
2022/07/29 02:17:05;;;;;;;2.55;2.1;;;;;;;19.75;66.19629;95162.34;;;;
2022/07/29 02:18:07;;;;;;;2.55;2.1;;;;;;;19.75;66.19629;95162.34;;;;
2022/07/29 02:19:11;;;;;;;2.55;2.1;;;;;;;19.75;66.19629;95162.34;;;;
2022/07/29 02:20:14;;;;;;;2.55;2.1;;;;;;;19.75;66.19629;95162.34;;;;
2022/07/29 02:21:16;;;;;;;2.55;2.1;;;;;;;19.75;66.19629;95162.34;;;;
2022/07/29 02:22:22;;;;;;;2;1.9;;;;;;;19.59;66.51172;95164.39;;;;
2022/07/29 02:23:26;;;;;;;2;1.9;;;;;;;19.59;66.51172;95164.39;;;;
2022/07/29 02:24:27;;;;;;;2;1.9;;;;;;;19.59;66.51172;95164.39;;;;
2022/07/29 02:25:30;;;;;;;2;1.9;;;;;;;19.59;66.51172;95164.39;;;;
2022/07/29 02:26:31;;;;;;;2;1.9;;;;;;;19.59;66.51172;95164.39;;;;
2022/07/29 02:27:33;;;;;;;2;1.9;;;;;;;19.59;66.51172;95164.39;;;;
2022/07/29 02:28:35;;;;;;;2;1.9;;;;;;;19.59;66.51172;95164.39;;;;
2022/07/29 02:29:36;;;;;;;2;1.9;;;;;;;19.59;66.51172;95164.39;;;;
2022/07/29 02:30:38;;;;;;;2;1.9;;;;;;;19.59;66.51172;95164.39;;;;
2022/07/29 02:31:43;;;;;;;2;1.9;;;;;;;19.59;66.51172;95164.39;;;;
2022/07/29 02:32:45;;;;;;;2;1.9;;;;;;;19.59;66.51172;95164.39;;;;
2022/07/29 02:33:47;;;;;;;3.25;2;;;;;;;19.41;66.84961;95144.3;;;;
2022/07/29 02:34:49;;;;;;;3.25;2;;;;;;;19.41;66.84961;95144.3;;;;
2022/07/29 02:35:52;;;;;;;3.25;2;;;;;;;19.41;66.84961;95144.3;;;;
2022/07/29 02:36:54;;;;;;;3.25;2;;;;;;;19.41;66.84961;95144.3;;;;
2022/07/29 02:39:00;;;;;;;3.25;2;;;;;;;19.41;66.84961;95144.3;;;;
2022/07/29 02:40:03;;;;;;;3.25;2;;;;;;;19.41;66.84961;95144.3;;;;
2022/07/29 02:41:08;;;;;;;3.25;2;;;;;;;19.41;66.84961;95144.3;;;;
2022/07/29 02:42:13;;;;;;;3.25;2;;;;;;;19.41;66.84961;95144.3;;;;
2022/07/29 02:43:17;;;;;;;3.25;2;;;;;;;19.41;66.84961;95144.3;;;;
2022/07/29 02:44:19;;;;;;;3.25;2;;;;;;;19.41;66.84961;95144.3;;;;
2022/07/29 02:45:24;;;;;;;3.25;2;;;;;;;19.41;66.84961;95144.3;;;;
2022/07/29 02:46:26;;;;;;;3.25;2;;;;;;;19.41;66.84961;95144.3;;;;
2022/07/29 02:47:31;;;;;;;3.25;2;;;;;;;19.41;66.84961;95144.3;;;;
2022/07/29 02:48:36;;;;;;;3.25;2;;;;;;;19.41;66.84961;95144.3;;;;
2022/07/29 02:49:41;;;;;;;3.25;2;;;;;;;19.41;66.84961;95144.3;;;;
2022/07/29 02:50:51;;;;;;;3.25;2;;;;;;;19.41;66.84961;95144.3;;;;
2022/07/29 02:52:01;;;;;;;3.25;2;;;;;;;19.41;66.84961;95144.3;;;;
2022/07/29 02:53:03;;;;;;;3.25;2;;;;;;;19.41;66.84961;95144.3;;;;
2022/07/29 02:54:12;;;;;;;3.25;2;;;;;;;19.41;66.84961;95144.3;;;;
2022/07/29 02:55:26;;;;;;;2.3;2;;;;;;;18.81;67.95605;95137.16;;;;
2022/07/29 02:56:34;;;;;;;2.3;2;;;;;;;18.81;67.95605;95137.16;;;;
2022/07/29 02:57:36;;;;;;;2.3;2;;;;;;;18.81;67.95605;95137.16;;;;
2022/07/29 02:58:44;;;;;;;2.3;2;;;;;;;18.81;67.95605;95137.16;;;;
2022/07/29 02:59:49;;;;;;;2.3;2;;;;;;;18.81;67.95605;95137.16;;;;
2022/07/29 03:00:52;;;;;;;2.3;2;;;;;;;18.81;67.95605;95137.16;;;;
2022/07/29 03:01:53;;;;;;;2.3;2;;;;;;;18.81;67.95605;95137.16;;;;
2022/07/29 03:02:57;;;;;;;2.3;2;;;;;;;18.81;67.95605;95137.16;;;;
2022/07/29 03:04:00;;;;;;;2.3;2;;;;;;;18.81;67.95605;95137.16;;;;
2022/07/29 03:05:04;;;;;;;2.3;2;;;;;;;18.81;67.95605;95137.16;;;;
2022/07/29 03:06:07;;;;;;;2.1;2;;;;;;;18.43;68.63379;95134.42;;;;
2022/07/29 03:07:09;;;;;;;2.1;2;;;;;;;18.43;68.63379;95134.42;;;;
2022/07/29 03:08:13;;;;;;;2.1;2;;;;;;;18.43;68.63379;95134.42;;;;
2022/07/29 03:09:15;;;;;;;2.1;2;;;;;;;18.43;68.63379;95134.42;;;;
2022/07/29 03:10:17;;;;;;;2.1;2;;;;;;;18.43;68.63379;95134.42;;;;
2022/07/29 03:11:18;;;;;;;2.1;2;;;;;;;18.43;68.63379;95134.42;;;;
2022/07/29 03:12:19;;;;;;;2.1;2;;;;;;;18.43;68.63379;95134.42;;;;
2022/07/29 03:13:20;;;;;;;2.1;2;;;;;;;18.43;68.63379;95134.42;;;;
2022/07/29 03:14:22;;;;;;;2.1;2;;;;;;;18.43;68.63379;95134.42;;;;
2022/07/29 03:15:24;;;;;;;2.1;2;;;;;;;18.43;68.63379;95134.42;;;;
2022/07/29 03:16:25;;;;;;;2.1;2;;;;;;;18.43;68.63379;95134.42;;;;
2022/07/29 03:17:26;;;;;;;2.1;2;;;;;;;18.43;68.63379;95134.42;;;;
2022/07/29 03:18:27;;;;;;;2.1;2;;;;;;;18.43;68.63379;95134.42;;;;
2022/07/29 03:19:28;;;;;;;2.1;2;;;;;;;18.43;68.63379;95134.42;;;;
2022/07/29 03:20:29;;;;;;;2.1;2;;;;;;;18.43;68.63379;95134.42;;;;
2022/07/29 03:21:29;;;;;;;2.1;2;;;;;;;18.43;68.63379;95134.42;;;;
2022/07/29 03:22:30;;;;;;;2.1;2;;;;;;;18.43;68.63379;95134.42;;;;
2022/07/29 03:23:31;;;;;;;2.1;2;;;;;;;18.43;68.63379;95134.42;;;;
2022/07/29 03:24:31;;;;;;;2.1;2;;;;;;;18.43;68.63379;95134.42;;;;
2022/07/29 03:25:34;;;;;;;2.1;2;;;;;;;18.43;68.63379;95134.42;;;;
2022/07/29 03:26:34;;;;;;;2.1;2;;;;;;;18.43;68.63379;95134.42;;;;
2022/07/29 03:27:35;;;;;;;2.4;2.15;;;;;;;17.87;69.77637;95132.56;;;;
2022/07/29 03:28:36;;;;;;;2.4;2.15;;;;;;;17.87;69.77637;95132.56;;;;
2022/07/29 03:29:36;;;;;;;2.4;2.15;;;;;;;17.87;69.77637;95132.56;;;;
2022/07/29 03:30:37;;;;;;;2.4;2.15;;;;;;;17.87;69.77637;95132.56;;;;
2022/07/29 03:31:37;;;;;;;2.4;2.15;;;;;;;17.87;69.77637;95132.56;;;;
2022/07/29 03:32:38;;;;;;;2.4;2.15;;;;;;;17.87;69.77637;95132.56;;;;
2022/07/29 03:33:40;;;;;;;2.4;2.15;;;;;;;17.87;69.77637;95132.56;;;;
2022/07/29 03:34:40;;;;;;;2.4;2.15;;;;;;;17.87;69.77637;95132.56;;;;
2022/07/29 03:35:41;;;;;;;2.4;2.15;;;;;;;17.87;69.77637;95132.56;;;;
2022/07/29 03:36:41;;;;;;;2.4;2.15;;;;;;;17.87;69.77637;95132.56;;;;
2022/07/29 03:37:42;;;;;;;2.3;2.1;;;;;;;17.68;70.25;95138.9;;;;
2022/07/29 03:38:43;;;;;;;2.3;2.1;;;;;;;17.68;70.25;95138.9;;;;
2022/07/29 03:39:45;;;;;;;2.3;2.1;;;;;;;17.68;70.25;95138.9;;;;
2022/07/29 03:40:48;;;;;;;2.3;2.1;;;;;;;17.68;70.25;95138.9;;;;
2022/07/29 03:41:54;;;;;;;2.3;2.1;;;;;;;17.68;70.25;95138.9;;;;
2022/07/29 03:42:58;;;;;;;2.3;2.1;;;;;;;17.68;70.25;95138.9;;;;
2022/07/29 03:44:00;;;;;;;2.3;2.1;;;;;;;17.68;70.25;95138.9;;;;
2022/07/29 03:45:01;;;;;;;2.3;2.1;;;;;;;17.68;70.25;95138.9;;;;
2022/07/29 03:46:07;;;;;;;2.3;2.1;;;;;;;17.68;70.25;95138.9;;;;
2022/07/29 03:47:10;;;;;;;2.3;2.1;;;;;;;17.68;70.25;95138.9;;;;
2022/07/29 03:48:13;;;;;;;3.1;2.1;;;;;;;17.5;70.7793;95133.56;;;;
2022/07/29 03:49:17;;;;;;;3.1;2.1;;;;;;;17.5;70.7793;95133.56;;;;
2022/07/29 03:50:20;;;;;;;3.1;2.1;;;;;;;17.5;70.7793;95133.56;;;;
2022/07/29 03:51:21;;;;;;;3.1;2.1;;;;;;;17.5;70.7793;95133.56;;;;
2022/07/29 03:52:22;;;;;;;3.1;2.1;;;;;;;17.5;70.7793;95133.56;;;;
2022/07/29 03:53:22;;;;;;;3.1;2.1;;;;;;;17.5;70.7793;95133.56;;;;
2022/07/29 03:54:23;;;;;;;3.1;2.1;;;;;;;17.5;70.7793;95133.56;;;;
2022/07/29 03:55:24;;;;;;;3.1;2.1;;;;;;;17.5;70.7793;95133.56;;;;
2022/07/29 03:56:26;;;;;;;3.1;2.1;;;;;;;17.5;70.7793;95133.56;;;;
2022/07/29 03:57:27;;;;;;;3.1;2.1;;;;;;;17.5;70.7793;95133.56;;;;
2022/07/29 03:58:30;;;;;;;3.1;2.1;;;;;;;17.5;70.7793;95133.56;;;;
2022/07/29 03:59:32;;;;;;;2.699999;2.05;;;;;;;17.51;71.13086;95141.85;;;;
2022/07/29 04:00:33;;;;;;;2.699999;2.05;;;;;;;17.51;71.13086;95141.85;;;;
2022/07/29 04:01:36;;;;;;;2.699999;2.05;;;;;;;17.51;71.13086;95141.85;;;;
2022/07/29 04:02:38;;;;;;;2.699999;2.05;;;;;;;17.51;71.13086;95141.85;;;;
2022/07/29 04:03:38;;;;;;;2.699999;2.05;;;;;;;17.51;71.13086;95141.85;;;;
2022/07/29 04:04:39;;;;;;;2.699999;2.05;;;;;;;17.51;71.13086;95141.85;;;;
2022/07/29 04:05:39;;;;;;;2.699999;2.05;;;;;;;17.51;71.13086;95141.85;;;;
2022/07/29 04:06:40;;;;;;;2.699999;2.05;;;;;;;17.51;71.13086;95141.85;;;;
2022/07/29 04:07:42;;;;;;;2.699999;2.05;;;;;;;17.51;71.13086;95141.85;;;;
2022/07/29 04:08:44;;;;;;;2.699999;2.05;;;;;;;17.51;71.13086;95141.85;;;;
2022/07/29 04:09:44;;;;;;;2.35;2.15;;;;;;;17.54;71.29883;95132;;;;
2022/07/29 04:10:45;;;;;;;2.35;2.15;;;;;;;17.54;71.29883;95132;;;;
2022/07/29 04:11:45;;;;;;;2.35;2.15;;;;;;;17.54;71.29883;95132;;;;
2022/07/29 04:12:46;;;;;;;2.35;2.15;;;;;;;17.54;71.29883;95132;;;;
2022/07/29 04:13:46;;;;;;;2.35;2.15;;;;;;;17.54;71.29883;95132;;;;
2022/07/29 04:14:47;;;;;;;2.35;2.15;;;;;;;17.54;71.29883;95132;;;;
2022/07/29 04:15:47;;;;;;;2.35;2.15;;;;;;;17.54;71.29883;95132;;;;
2022/07/29 04:16:48;;;;;;;2.35;2.15;;;;;;;17.54;71.29883;95132;;;;
2022/07/29 04:17:48;;;;;;;2.35;2.15;;;;;;;17.54;71.29883;95132;;;;
2022/07/29 04:18:49;;;;;;;2.35;2.15;;;;;;;17.54;71.29883;95132;;;;
2022/07/29 04:19:49;;;;;;;2.35;2.15;;;;;;;17.54;71.29883;95132;;;;
2022/07/29 04:20:50;;;;;;;2.35;2.2;;;;;;;17.77;71.29297;95136.92;;;;
2022/07/29 04:21:51;;;;;;;2.35;2.2;;;;;;;17.77;71.29297;95136.92;;;;
2022/07/29 04:22:51;;;;;;;2.35;2.2;;;;;;;17.77;71.29297;95136.92;;;;
2022/07/29 04:23:52;;;;;;;2.35;2.2;;;;;;;17.77;71.29297;95136.92;;;;
2022/07/29 04:24:52;;;;;;;2.35;2.2;;;;;;;17.77;71.29297;95136.92;;;;
2022/07/29 04:25:53;;;;;;;2.35;2.2;;;;;;;17.77;71.29297;95136.92;;;;
2022/07/29 04:26:53;;;;;;;2.35;2.2;;;;;;;17.77;71.29297;95136.92;;;;
2022/07/29 04:28:01;;;;;;;2.35;2.2;;;;;;;17.77;71.29297;95136.92;;;;
2022/07/29 04:29:02;;;;;;;2.35;2.2;;;;;;;17.77;71.29297;95136.92;;;;
2022/07/29 04:30:02;;;;;;;2.35;2.2;;;;;;;17.77;71.29297;95136.92;;;;
2022/07/29 04:31:04;;;;;;;2.2;2;;;;;;;18.12;71.1748;95158.51;;;;
2022/07/29 04:32:05;;;;;;;2.2;2;;;;;;;18.12;71.1748;95158.51;;;;
2022/07/29 04:33:06;;;;;;;2.2;2;;;;;;;18.12;71.1748;95158.51;;;;
2022/07/29 04:34:07;;;;;;;2.2;2;;;;;;;18.12;71.1748;95158.51;;;;
2022/07/29 04:35:08;;;;;;;2.2;2;;;;;;;18.12;71.1748;95158.51;;;;
2022/07/29 04:36:10;;;;;;;2.2;2;;;;;;;18.12;71.1748;95158.51;;;;
2022/07/29 04:37:11;;;;;;;2.2;2;;;;;;;18.12;71.1748;95158.51;;;;
2022/07/29 04:38:11;;;;;;;2.2;2;;;;;;;18.12;71.1748;95158.51;;;;
2022/07/29 04:39:12;;;;;;;2.2;2;;;;;;;18.12;71.1748;95158.51;;;;
2022/07/29 04:40:12;;;;;;;2.2;2;;;;;;;18.12;71.1748;95158.51;;;;
2022/07/29 04:41:13;;;;;;;2.2;2;;;;;;;18.12;71.1748;95158.51;;;;
2022/07/29 04:42:14;;;;;;;2.2;2;;;;;;;18.55;71.00098;95164.42;;;;
2022/07/29 04:43:14;;;;;;;2.2;2;;;;;;;18.55;71.00098;95164.42;;;;
2022/07/29 04:44:15;;;;;;;2.2;2;;;;;;;18.55;71.00098;95164.42;;;;
2022/07/29 04:45:16;;;;;;;2.2;2;;;;;;;18.55;71.00098;95164.42;;;;
2022/07/29 04:46:16;;;;;;;2.2;2;;;;;;;18.55;71.00098;95164.42;;;;
2022/07/29 04:47:17;;;;;;;2.2;2;;;;;;;18.55;71.00098;95164.42;;;;
2022/07/29 04:48:18;;;;;;;2.2;2;;;;;;;18.55;71.00098;95164.42;;;;
2022/07/29 04:49:18;;;;;;;2.2;2;;;;;;;18.55;71.00098;95164.42;;;;
2022/07/29 04:50:19;;;;;;;2.2;2;;;;;;;18.55;71.00098;95164.42;;;;
2022/07/29 04:51:19;;;;;;;2.2;2;;;;;;;18.55;71.00098;95164.42;;;;
2022/07/29 04:52:20;;;;;;;3.55;2.4;;;;;;;18.79;70.84277;95179.86;;;;
2022/07/29 04:53:20;;;;;;;3.55;2.4;;;;;;;18.79;70.84277;95179.86;;;;
2022/07/29 04:54:21;;;;;;;3.55;2.4;;;;;;;18.79;70.84277;95179.86;;;;
2022/07/29 04:55:21;;;;;;;3.55;2.4;;;;;;;18.79;70.84277;95179.86;;;;
2022/07/29 04:56:22;;;;;;;3.55;2.4;;;;;;;18.79;70.84277;95179.86;;;;
2022/07/29 04:57:23;;;;;;;3.55;2.4;;;;;;;18.79;70.84277;95179.86;;;;
2022/07/29 04:58:23;;;;;;;3.55;2.4;;;;;;;18.79;70.84277;95179.86;;;;
2022/07/29 04:59:26;;;;;;;3.55;2.4;;;;;;;18.79;70.84277;95179.86;;;;
2022/07/29 05:00:27;;;;;;;3.55;2.4;;;;;;;18.79;70.84277;95179.86;;;;
2022/07/29 05:01:28;;;;;;;3.55;2.4;;;;;;;18.79;70.84277;95179.86;;;;
2022/07/29 05:02:28;;;;;;;3.55;2.4;;;;;;;18.79;70.84277;95179.86;;;;
2022/07/29 05:03:29;;;;;;;3.55;2.4;;;;;;;18.79;70.84277;95179.86;;;;
2022/07/29 05:04:29;;;;;;;3.55;2.4;;;;;;;18.79;70.84277;95179.86;;;;
2022/07/29 05:05:30;;;;;;;3.55;2.4;;;;;;;18.79;70.84277;95179.86;;;;
2022/07/29 05:06:31;;;;;;;3.55;2.4;;;;;;;18.79;70.84277;95179.86;;;;
2022/07/29 05:07:31;;;;;;;3.55;2.4;;;;;;;18.79;70.84277;95179.86;;;;
2022/07/29 05:08:31;;;;;;;3.55;2.4;;;;;;;18.79;70.84277;95179.86;;;;
2022/07/29 05:09:32;;;;;;;3.55;2.4;;;;;;;18.79;70.84277;95179.86;;;;
2022/07/29 05:10:37;;;;;;;3.55;2.4;;;;;;;18.79;70.84277;95179.86;;;;
2022/07/29 05:11:38;;;;;;;3.55;2.4;;;;;;;18.79;70.84277;95179.86;;;;
2022/07/29 05:12:38;;;;;;;3.55;2.4;;;;;;;18.79;70.84277;95179.86;;;;
2022/07/29 05:13:39;;;;;;;2.6;2.2;;;;;;;18.78;71.11426;95197.02;;;;
2022/07/29 05:14:39;;;;;;;2.6;2.2;;;;;;;18.78;71.11426;95197.02;;;;
2022/07/29 05:15:40;;;;;;;2.6;2.2;;;;;;;18.78;71.11426;95197.02;;;;
2022/07/29 05:16:41;;;;;;;2.6;2.2;;;;;;;18.78;71.11426;95197.02;;;;
2022/07/29 05:17:42;;;;;;;2.6;2.2;;;;;;;18.78;71.11426;95197.02;;;;
2022/07/29 05:18:42;;;;;;;2.6;2.2;;;;;;;18.78;71.11426;95197.02;;;;
2022/07/29 05:19:42;;;;;;;2.6;2.2;;;;;;;18.78;71.11426;95197.02;;;;
2022/07/29 05:20:43;;;;;;;2.6;2.2;;;;;;;18.78;71.11426;95197.02;;;;
2022/07/29 05:21:44;;;;;;;2.6;2.2;;;;;;;18.78;71.11426;95197.02;;;;
2022/07/29 05:22:44;;;;;;;2.6;2.2;;;;;;;18.78;71.11426;95197.02;;;;
2022/07/29 05:23:45;;;;;;;2.6;2.2;;;;;;;18.78;71.11426;95197.02;;;;
2022/07/29 05:24:45;;;;;;;2.9;2.6;;;;;;;18.72;71.51074;95195;;;;
2022/07/29 05:25:46;;;;;;;2.9;2.6;;;;;;;18.72;71.51074;95195;;;;
2022/07/29 05:26:46;;;;;;;2.9;2.6;;;;;;;18.72;71.51074;95195;;;;
2022/07/29 05:27:47;;;;;;;2.9;2.6;;;;;;;18.72;71.51074;95195;;;;
2022/07/29 05:28:47;;;;;;;2.9;2.6;;;;;;;18.72;71.51074;95195;;;;
2022/07/29 05:29:48;;;;;;;2.9;2.6;;;;;;;18.72;71.51074;95195;;;;
2022/07/29 05:30:49;;;;;;;2.9;2.6;;;;;;;18.72;71.51074;95195;;;;
2022/07/29 05:31:51;;;;;;;2.9;2.6;;;;;;;18.72;71.51074;95195;;;;
2022/07/29 05:32:52;;;;;;;2.9;2.6;;;;;;;18.72;71.51074;95195;;;;
2022/07/29 05:33:52;;;;;;;2.9;2.6;;;;;;;18.72;71.51074;95195;;;;
2022/07/29 05:34:53;;;;;;;2.8;2.5;;;;;;;18.89;71.62598;95204.94;;;;
2022/07/29 05:35:53;;;;;;;2.8;2.5;;;;;;;18.89;71.62598;95204.94;;;;
2022/07/29 05:36:53;;;;;;;2.8;2.5;;;;;;;18.89;71.62598;95204.94;;;;
2022/07/29 05:37:54;;;;;;;2.8;2.5;;;;;;;18.89;71.62598;95204.94;;;;
2022/07/29 05:38:54;;;;;;;2.8;2.5;;;;;;;18.89;71.62598;95204.94;;;;
2022/07/29 05:39:55;;;;;;;2.8;2.5;;;;;;;18.89;71.62598;95204.94;;;;
2022/07/29 05:40:55;;;;;;;2.8;2.5;;;;;;;18.89;71.62598;95204.94;;;;
2022/07/29 05:41:57;;;;;;;2.8;2.5;;;;;;;18.89;71.62598;95204.94;;;;
2022/07/29 05:42:57;;;;;;;2.8;2.5;;;;;;;18.89;71.62598;95204.94;;;;
2022/07/29 05:43:58;;;;;;;2.8;2.5;;;;;;;18.89;71.62598;95204.94;;;;
2022/07/29 05:44:58;;;;;;;2.8;2.5;;;;;;;18.89;71.62598;95204.94;;;;
2022/07/29 05:45:59;;;;;;;2.8;2.5;;;;;;;18.89;71.62598;95204.94;;;;
2022/07/29 05:46:59;;;;;;;2.8;2.5;;;;;;;18.89;71.62598;95204.94;;;;
2022/07/29 05:48:00;;;;;;;2.8;2.5;;;;;;;18.89;71.62598;95204.94;;;;
2022/07/29 05:49:02;;;;;;;2.8;2.5;;;;;;;18.89;71.62598;95204.94;;;;
2022/07/29 05:50:04;;;;;;;2.8;2.5;;;;;;;18.89;71.62598;95204.94;;;;
2022/07/29 05:51:05;;;;;;;2.8;2.5;;;;;;;18.89;71.62598;95204.94;;;;
2022/07/29 05:52:06;;;;;;;2.8;2.5;;;;;;;18.89;71.62598;95204.94;;;;
2022/07/29 05:53:07;;;;;;;2.8;2.5;;;;;;;18.89;71.62598;95204.94;;;;
2022/07/29 05:54:07;;;;;;;2.8;2.5;;;;;;;18.89;71.62598;95204.94;;;;
2022/07/29 05:55:08;;;;;;;2.8;2.5;;;;;;;18.89;71.62598;95204.94;;;;
2022/07/29 05:56:09;;;;;;;2.8;2.5;;;;;;;18.89;71.62598;95204.94;;;;
2022/07/29 05:57:09;;;;;;;3.35;2.65;;;;;;;19.47;70.96094;95205.29;;;;
2022/07/29 05:58:16;;;;;;;3.35;2.65;;;;;;;19.47;70.96094;95205.29;;;;
2022/07/29 05:59:16;;;;;;;3.35;2.65;;;;;;;19.47;70.96094;95205.29;;;;
2022/07/29 06:00:17;;;;;;;3.35;2.65;;;;;;;19.47;70.96094;95205.29;;;;
2022/07/29 06:01:17;;;;;;;3.35;2.65;;;;;;;19.47;70.96094;95205.29;;;;
2022/07/29 06:02:18;;;;;;;3.35;2.65;;;;;;;19.47;70.96094;95205.29;;;;
2022/07/29 06:03:19;;;;;;;3.35;2.65;;;;;;;19.47;70.96094;95205.29;;;;
2022/07/29 06:04:19;;;;;;;3.35;2.65;;;;;;;19.47;70.96094;95205.29;;;;
2022/07/29 06:05:20;;;;;;;3.35;2.65;;;;;;;19.47;70.96094;95205.29;;;;
2022/07/29 06:06:21;;;;;;;3.35;2.65;;;;;;;19.47;70.96094;95205.29;;;;
2022/07/29 06:07:21;;;;;;;2.6;2.4;;;;;;;19.89;70.47754;95209.96;;;;
2022/07/29 06:08:22;;;;;;;2.6;2.4;;;;;;;19.89;70.47754;95209.96;;;;
2022/07/29 06:09:22;;;;;;;2.6;2.4;;;;;;;19.89;70.47754;95209.96;;;;
2022/07/29 06:10:24;;;;;;;2.6;2.4;;;;;;;19.89;70.47754;95209.96;;;;
2022/07/29 06:11:24;;;;;;;2.6;2.4;;;;;;;19.89;70.47754;95209.96;;;;